Auance, South Dakota
Current Conditions -  °F | °C
As of 8:55 AM on Wednesday 28 Jan 2015 (Local Time) from KPHP Reporting Station
Clear Clear  
Wind Chill: 50°   Ceiling: Unl
Heat Index: 50°   Visibility: 10mi
Dew Point: 32°   Wind: 7mph
Humidity: 50%   Direction: 280°W
Pressure: 29.78"   Gusts: NA
Location:  44.8511°N, 102.128°W
Report Text: KPHP 281555Z AUTO 28006KT 10SM CLR 10/00 A2978 RMK AO2 SLP090 T01000000
Loading
Personal Weather Stations






























Interactive Weather Map New forecast layout! Learn more

10-Day Weather Forecast

Advertisements
Track Severe Weather on mobile